Waihola, New Zealand
Current Conditions -  °F | °C
As of 6:30 PM on Thursday 27 Nov 2014 (Local Time) from NZCH Reporting Station
Clear Clear  
Wind Chill: 66°   Ceiling: Unl
Heat Index: 66°   Visibility: 6mi
Dew Point: 37°   Wind: 16mph
Humidity: 35%   Direction: 310°NW
Pressure: 29.44"   Gusts: 31mph
Location:  46.02°S, 170.1°E
Report Text: NZCH 270630Z AUTO 31014G27KT 270V340 9999 NCD 19/03 Q0997 NOSIG
Loading
Personal Weather Stations






























Interactive Weather Map New forecast layout! Learn more

10-Day Weather Forecast

Advertisements
Track Severe Weather on mobile